Time;durP1;ratioP1;P1;durP2;ratioP2;P2;SDS_P1;SDS_P2;PMS_P1;PMS_P2;Temp;Humidity;BMP_temperature;BMP_pressure;BME280_temperature;BME280_humidity;BME280_pressure;Samples;Min_cycle;Max_cycle;Signal;HPM_P1;HPM_P2
2021/05/22 00:01:58;;;;;;;0.73;0.70;;;10.80;99.90;;;;;;5032829;28;20199;-77
2021/05/22 00:04:24;;;;;;;3.30;0.77;;;10.80;99.90;;;;;;5015966;28;20655;-77
2021/05/22 00:06:49;;;;;;;1.27;0.80;;;10.80;99.90;;;;;;5030624;28;20510;-77
2021/05/22 00:09:15;;;;;;;1.43;0.60;;;10.80;99.90;;;;;;5030406;28;20181;-77
2021/05/22 00:11:41;;;;;;;1.83;0.87;;;10.80;99.90;;;;;;5031369;28;20197;-77
2021/05/22 00:14:06;;;;;;;0.73;0.70;;;10.90;99.90;;;;;;5014236;28;20197;-77
2021/05/22 00:16:33;;;;;;;1.70;0.87;;;10.90;99.90;;;;;;5034508;28;20547;-77
2021/05/22 00:18:59;;;;;;;0.50;0.50;;;10.90;99.90;;;;;;5033720;28;20180;-77
2021/05/22 00:21:25;;;;;;;0.70;0.53;;;10.90;99.90;;;;;;5027658;28;20870;-77
2021/05/22 00:23:50;;;;;;;0.73;0.60;;;10.90;99.90;;;;;;5034324;28;20535;-77
2021/05/22 00:26:16;;;;;;;1.40;0.60;;;10.80;99.90;;;;;;5032072;28;20232;-78
2021/05/22 00:28:41;;;;;;;1.00;0.70;;;10.90;99.90;;;;;;5034696;28;20200;-77
2021/05/22 00:31:07;;;;;;;0.60;0.50;;;10.80;99.90;;;;;;5031890;28;20179;-78
2021/05/22 00:33:33;;;;;;;1.00;0.57;;;10.80;99.90;;;;;;5033854;28;20183;-77
2021/05/22 00:35:58;;;;;;;2.23;0.63;;;10.80;99.90;;;;;;5027310;28;20214;-77
2021/05/22 00:38:24;;;;;;;3.40;0.77;;;10.80;99.90;;;;;;5033950;28;20266;-77
2021/05/22 00:40:49;;;;;;;1.07;0.60;;;10.70;99.90;;;;;;5032798;28;20187;-77
2021/05/22 00:43:15;;;;;;;1.83;0.80;;;10.70;99.90;;;;;;5031708;28;20213;-76
2021/05/22 00:45:41;;;;;;;0.90;0.70;;;10.70;99.90;;;;;;5032357;28;20185;-77
2021/05/22 00:48:07;;;;;;;2.33;0.67;;;10.60;99.90;;;;;;5034014;28;20226;-77
2021/05/22 00:50:36;;;;;;;0.70;0.60;;;10.60;99.90;;;;;;5032905;28;20621;-77
2021/05/22 00:53:03;;;;;;;1.90;0.70;;;10.60;99.90;;;;;;5031011;28;20200;-77
2021/05/22 00:55:29;;;;;;;1.00;0.53;;;10.50;99.90;;;;;;5033415;28;20433;-75
2021/05/22 00:57:56;;;;;;;0.60;0.60;;;10.50;99.90;;;;;;5031839;28;21073;-77
2021/05/22 01:00:42;;;;;;;1.57;0.60;;;10.40;99.90;;;;;;5033742;28;20204;-77
2021/05/22 01:03:10;;;;;;;2.53;0.60;;;10.40;99.90;;;;;;5029411;28;20471;-77
2021/05/22 01:05:40;;;;;;;1.10;0.50;;;10.30;99.90;;;;;;5015416;28;20424;-77
2021/05/22 01:08:19;;;;;;;2.57;0.53;;;10.20;99.90;;;;;;5028374;28;20441;-77
2021/05/22 01:10:50;;;;;;;1.03;0.63;;;10.20;99.90;;;;;;5033566;28;20425;-78
2021/05/22 01:13:18;;;;;;;0.73;0.60;;;10.10;99.90;;;;;;5029081;28;20802;-77
2021/05/22 01:15:46;;;;;;;3.87;0.60;;;10.10;99.90;;;;;;5015564;28;20541;-77
2021/05/22 01:18:12;;;;;;;2.20;0.50;;;10.10;99.90;;;;;;5004639;28;20451;-77
2021/05/22 01:20:49;;;;;;;2.00;0.70;;;10.10;99.90;;;;;;5013554;28;20411;-78
2021/05/22 01:23:21;;;;;;;0.60;0.50;;;10.10;99.90;;;;;;5028073;28;20466;-77
2021/05/22 01:25:49;;;;;;;0.53;0.50;;;10.10;99.90;;;;;;5033287;28;20903;-77
2021/05/22 01:28:15;;;;;;;0.60;0.60;;;10.10;99.90;;;;;;5031005;28;20940;-77
2021/05/22 01:30:43;;;;;;;1.23;0.70;;;10.10;99.90;;;;;;5033157;28;20447;-77
2021/05/22 01:33:09;;;;;;;1.10;0.50;;;10.00;99.90;;;;;;5031735;28;20502;-77
2021/05/22 01:35:37;;;;;;;1.37;1.13;;;10.00;99.90;;;;;;5030936;28;20444;-77
2021/05/22 01:38:03;;;;;;;0.67;0.67;;;10.10;99.90;;;;;;5012560;28;20247;-78
2021/05/22 01:40:29;;;;;;;2.80;1.03;;;10.10;99.90;;;;;;5015282;28;20427;-80
2021/05/22 01:42:54;;;;;;;0.57;0.50;;;10.10;99.90;;;;;;5032672;28;20424;-74
2021/05/22 01:45:31;;;;;;;0.50;0.50;;;10.10;99.90;;;;;;5013297;28;20197;-77
2021/05/22 01:47:59;;;;;;;1.27;0.60;;;10.20;99.90;;;;;;5032897;28;20171;-77
2021/05/22 01:50:28;;;;;;;2.10;0.70;;;10.20;99.90;;;;;;5012692;28;20529;-76
2021/05/22 01:52:56;;;;;;;3.93;0.70;;;10.20;99.90;;;;;;5007534;28;20440;-77
2021/05/22 01:55:23;;;;;;;0.60;0.50;;;10.20;99.90;;;;;;5021248;28;20454;-77
2021/05/22 01:57:49;;;;;;;0.60;0.50;;;10.10;99.90;;;;;;5014950;28;20468;-77
2021/05/22 02:00:16;;;;;;;3.70;0.60;;;9.90;99.90;;;;;;5014468;28;20955;-77
2021/05/22 02:02:55;;;;;;;1.77;0.67;;;9.80;99.90;;;;;;5032397;28;20412;-77
2021/05/22 02:05:22;;;;;;;1.43;0.60;;;9.70;99.90;;;;;;5028432;28;21245;-77
2021/05/22 02:07:49;;;;;;;2.20;0.80;;;9.50;99.90;;;;;;5027215;28;20437;-76
2021/05/22 02:10:15;;;;;;;0.80;0.73;;;9.50;99.90;;;;;;5030155;28;20431;-79
2021/05/22 02:12:42;;;;;;;1.43;0.50;;;9.30;99.90;;;;;;5032457;28;20428;-77
2021/05/22 02:15:11;;;;;;;1.03;0.50;;;9.30;99.90;;;;;;5026476;28;20513;-77
2021/05/22 02:17:38;;;;;;;2.70;0.80;;;9.30;99.90;;;;;;5013235;28;21010;-77
2021/05/22 02:20:06;;;;;;;1.60;0.77;;;9.30;99.90;;;;;;5030400;28;20771;-77
2021/05/22 02:22:33;;;;;;;0.93;0.60;;;9.20;99.90;;;;;;5028387;28;20420;-77
2021/05/22 02:24:59;;;;;;;1.00;0.90;;;9.20;99.90;;;;;;5031557;28;20465;-77
2021/05/22 02:27:24;;;;;;;1.07;0.57;;;9.20;99.90;;;;;;5029347;28;20880;-77
2021/05/22 02:29:51;;;;;;;0.83;0.80;;;9.20;99.90;;;;;;5032240;28;20188;-77
2021/05/22 02:32:18;;;;;;;2.80;0.70;;;9.10;99.90;;;;;;5029575;28;20254;-77
2021/05/22 02:35:04;;;;;;;1.57;0.80;;;9.00;99.90;;;;;;5031981;28;20427;-77
2021/05/22 02:37:32;;;;;;;2.00;0.60;;;8.90;99.90;;;;;;5013206;28;20890;-77
2021/05/22 02:40:02;;;;;;;0.60;0.60;;;8.80;99.90;;;;;;5032066;28;20469;-79
2021/05/22 02:42:31;;;;;;;1.20;0.67;;;8.80;99.90;;;;;;5029655;28;20939;-77
2021/05/22 02:44:58;;;;;;;0.53;0.50;;;8.70;99.90;;;;;;5031714;28;20458;-78
2021/05/22 02:47:25;;;;;;;2.60;0.60;;;8.80;99.90;;;;;;5027691;28;21063;-75
2021/05/22 02:49:52;;;;;;;0.57;0.57;;;8.70;99.90;;;;;;5025438;28;20435;-77
2021/05/22 02:52:19;;;;;;;0.50;0.50;;;8.70;99.90;;;;;;5027062;28;20421;-77
2021/05/22 02:54:47;;;;;;;1.57;0.67;;;8.70;99.90;;;;;;5031466;28;20432;-76
2021/05/22 02:57:14;;;;;;;0.70;0.50;;;8.70;99.90;;;;;;5029373;28;20455;-76
2021/05/22 02:59:40;;;;;;;1.80;0.53;;;8.70;99.90;;;;;;5029345;28;20450;-76
2021/05/22 03:02:07;;;;;;;0.60;0.60;;;8.60;99.90;;;;;;5030025;28;20436;-76
2021/05/22 03:04:34;;;;;;;0.50;0.50;;;8.60;99.90;;;;;;5013768;28;20349;-77
2021/05/22 03:07:00;;;;;;;1.20;0.60;;;8.60;99.90;;;;;;5028003;28;20456;-77
2021/05/22 03:09:26;;;;;;;0.80;0.50;;;8.60;99.90;;;;;;5031142;28;20816;-78
2021/05/22 03:11:52;;;;;;;0.90;0.70;;;8.60;99.90;;;;;;5031397;28;20421;-77
2021/05/22 03:14:17;;;;;;;1.47;0.60;;;8.60;99.90;;;;;;5029166;28;20195;-77
2021/05/22 03:16:43;;;;;;;3.10;0.70;;;8.60;99.90;;;;;;5031503;28;20226;-77
2021/05/22 03:19:08;;;;;;;3.50;0.80;;;8.60;99.90;;;;;;5027310;28;20536;-77
2021/05/22 03:21:34;;;;;;;0.70;0.60;;;8.60;99.90;;;;;;5013192;28;20257;-76
2021/05/22 03:24:00;;;;;;;0.60;0.60;;;8.60;99.90;;;;;;5029637;28;20222;-77
2021/05/22 03:26:28;;;;;;;1.53;0.60;;;8.60;99.90;;;;;;5031099;28;20530;-77
2021/05/22 03:28:53;;;;;;;1.90;0.83;;;8.60;99.90;;;;;;5023524;28;20189;-77
2021/05/22 03:31:19;;;;;;;1.40;1.10;;;8.60;99.90;;;;;;5027992;28;20512;-76
2021/05/22 03:33:44;;;;;;;4.00;0.87;;;8.60;99.90;;;;;;5029015;28;20591;-77
2021/05/22 03:36:10;;;;;;;1.90;1.10;;;8.60;99.90;;;;;;5028897;28;20242;-78
2021/05/22 03:38:35;;;;;;;2.53;0.90;;;8.60;99.90;;;;;;5012390;28;20189;-76
2021/05/22 03:41:01;;;;;;;2.97;1.00;;;8.60;99.90;;;;;;5012533;28;20245;-77
2021/05/22 03:43:26;;;;;;;1.07;0.97;;;8.60;99.90;;;;;;5030868;28;20207;-78
2021/05/22 03:45:52;;;;;;;1.10;0.67;;;8.60;99.90;;;;;;5028935;28;20682;-76
2021/05/22 03:48:17;;;;;;;3.90;0.90;;;8.60;99.90;;;;;;5029164;28;20767;-77
2021/05/22 03:50:43;;;;;;;5.57;0.73;;;8.60;99.90;;;;;;5023238;28;20259;-77
2021/05/22 03:53:09;;;;;;;2.50;0.80;;;8.60;99.90;;;;;;5025314;28;20236;-77
2021/05/22 03:55:35;;;;;;;2.27;0.90;;;8.60;99.90;;;;;;5028907;28;20198;-76
2021/05/22 03:58:00;;;;;;;5.77;1.43;;;8.70;99.90;;;;;;5031114;28;20448;-77
2021/05/22 04:00:26;;;;;;;2.13;0.90;;;8.70;99.90;;;;;;5029039;28;20670;-76
2021/05/22 04:02:52;;;;;;;2.10;0.83;;;8.70;99.90;;;;;;5028772;28;20193;-76
2021/05/22 04:05:17;;;;;;;3.23;1.00;;;8.80;99.90;;;;;;5026291;28;20189;-77
2021/05/22 04:07:43;;;;;;;0.70;0.60;;;8.80;99.90;;;;;;5024819;28;20193;-76
2021/05/22 04:10:09;;;;;;;1.00;0.77;;;8.80;99.90;;;;;;5025490;28;20180;-77
2021/05/22 04:12:35;;;;;;;7.17;1.00;;;8.80;99.90;;;;;;5027421;28;20175;-74
2021/05/22 04:15:01;;;;;;;2.00;0.73;;;8.80;99.90;;;;;;5034523;28;20503;-80
2021/05/22 04:17:26;;;;;;;1.83;1.10;;;8.80;99.90;;;;;;5025692;28;20213;-77
2021/05/22 04:19:52;;;;;;;5.10;0.90;;;8.80;99.90;;;;;;5019481;28;20716;-76
2021/05/22 04:22:18;;;;;;;4.67;0.80;;;8.90;99.90;;;;;;5022893;28;20193;-75
2021/05/22 04:24:43;;;;;;;2.50;1.00;;;8.90;99.90;;;;;;5034277;28;20805;-76
2021/05/22 04:27:09;;;;;;;3.47;0.97;;;9.00;99.90;;;;;;5031999;28;20221;-77
2021/05/22 04:29:34;;;;;;;3.73;1.30;;;8.90;99.90;;;;;;5034648;28;20176;-77
2021/05/22 04:32:00;;;;;;;0.80;0.80;;;8.90;99.90;;;;;;5032258;28;20240;-75
2021/05/22 04:34:25;;;;;;;4.87;0.60;;;8.90;99.90;;;;;;5031949;28;20192;-76
2021/05/22 04:36:51;;;;;;;1.93;0.80;;;8.90;99.90;;;;;;5031904;28;20212;-76
2021/05/22 04:39:16;;;;;;;1.43;1.07;;;8.80;99.90;;;;;;5016634;28;20179;-77
2021/05/22 04:41:42;;;;;;;1.10;1.00;;;8.80;99.90;;;;;;5032088;28;20200;-77
2021/05/22 04:44:08;;;;;;;4.87;0.60;;;8.80;99.90;;;;;;5031746;28;20215;-77
2021/05/22 04:46:33;;;;;;;1.23;0.70;;;8.80;99.90;;;;;;5033731;28;20189;-77
2021/05/22 04:48:59;;;;;;;0.80;0.60;;;8.80;99.90;;;;;;5027026;28;20180;-77
2021/05/22 04:51:25;;;;;;;1.30;0.83;;;8.80;99.90;;;;;;5022653;28;20185;-77
2021/05/22 04:53:52;;;;;;;2.37;0.97;;;8.90;99.90;;;;;;5015012;28;20275;-77
2021/05/22 04:56:18;;;;;;;2.13;0.80;;;8.90;99.90;;;;;;5033434;28;20458;-76
2021/05/22 04:58:44;;;;;;;2.00;0.60;;;9.10;99.90;;;;;;5015631;28;20443;-77
2021/05/22 05:01:09;;;;;;;2.20;0.70;;;9.20;99.90;;;;;;5033507;28;20457;-79
2021/05/22 05:03:35;;;;;;;2.87;0.63;;;9.40;99.90;;;;;;5030433;28;20216;-77
2021/05/22 05:06:00;;;;;;;0.60;0.60;;;9.70;99.90;;;;;;5032356;28;20229;-78
2021/05/22 05:08:27;;;;;;;0.53;0.50;;;10.40;99.90;;;;;;5026605;28;20178;-77
2021/05/22 05:10:53;;;;;;;2.20;0.70;;;12.60;99.90;;;;;;4996570;28;20174;-77
2021/05/22 05:13:19;;;;;;;2.80;0.63;;;13.80;99.90;;;;;;5013556;28;20856;-77
2021/05/22 05:15:44;;;;;;;2.40;0.50;;;14.60;99.90;;;;;;5013906;28;20166;-77
2021/05/22 05:18:10;;;;;;;1.80;0.50;;;15.40;99.90;;;;;;5018121;28;21003;-77
2021/05/22 05:20:36;;;;;;;1.80;0.80;;;16.60;99.90;;;;;;5029600;28;20635;-78
2021/05/22 05:23:02;;;;;;;1.80;0.60;;;17.80;99.90;;;;;;5026127;28;20546;-79
2021/05/22 05:25:28;;;;;;;0.70;0.50;;;19.00;99.90;;;;;;5016039;28;20440;-78
2021/05/22 05:27:53;;;;;;;2.53;0.80;;;19.50;99.90;;;;;;5032887;28;20197;-77
2021/05/22 05:30:19;;;;;;;1.40;0.63;;;20.30;99.90;;;;;;5030989;28;20178;-78
2021/05/22 05:32:45;;;;;;;2.77;0.80;;;20.70;99.90;;;;;;5033809;28;20174;-76
2021/05/22 05:35:11;;;;;;;0.93;0.47;;;20.10;99.90;;;;;;5004910;28;20194;-78
2021/05/22 05:37:38;;;;;;;2.60;0.60;;;18.70;99.90;;;;;;5028037;28;20202;-78
2021/05/22 05:40:04;;;;;;;2.67;0.80;;;17.20;99.90;;;;;;5008679;28;20437;-78
2021/05/22 05:42:29;;;;;;;0.90;0.60;;;16.60;99.90;;;;;;5013306;28;20471;-78
2021/05/22 05:44:55;;;;;;;1.33;0.93;;;17.00;99.90;;;;;;5016298;28;20476;-78
2021/05/22 05:47:21;;;;;;;1.13;0.60;;;16.60;99.90;;;;;;5031075;28;20209;-78
2021/05/22 05:49:46;;;;;;;4.27;0.80;;;15.80;99.90;;;;;;5026910;28;20216;-78
2021/05/22 05:52:12;;;;;;;2.40;0.60;;;15.60;99.90;;;;;;5027615;28;20186;-78
2021/05/22 05:54:37;;;;;;;2.90;1.00;;;15.80;99.90;;;;;;5032730;28;20190;-78
2021/05/22 05:57:03;;;;;;;1.20;0.90;;;16.10;99.90;;;;;;5028984;28;20641;-78
2021/05/22 05:59:28;;;;;;;3.80;0.80;;;16.10;99.90;;;;;;5033241;28;20196;-78
2021/05/22 06:01:55;;;;;;;5.40;0.87;;;16.40;99.90;;;;;;5030568;28;20558;-75
2021/05/22 06:04:20;;;;;;;3.53;1.00;;;16.10;99.90;;;;;;5031962;28;20276;-75
2021/05/22 06:06:47;;;;;;;2.93;0.83;;;15.00;99.90;;;;;;5023680;28;20456;-74
2021/05/22 06:09:12;;;;;;;2.40;1.00;;;14.90;99.90;;;;;;5032013;28;20185;-75
2021/05/22 06:11:38;;;;;;;1.47;0.80;;;15.20;99.90;;;;;;5030064;28;20436;-75
2021/05/22 06:14:09;;;;;;;1.67;0.83;;;15.50;99.90;;;;;;5029846;28;20549;-75
2021/05/22 06:16:35;;;;;;;9.00;1.47;;;15.90;99.90;;;;;;5016429;28;20225;-76
2021/05/22 06:19:01;;;;;;;2.80;0.77;;;15.90;99.90;;;;;;5029032;28;20440;-75
2021/05/22 06:21:27;;;;;;;3.23;0.93;;;16.20;99.90;;;;;;5027288;28;21257;-76
2021/05/22 06:23:53;;;;;;;4.00;0.87;;;16.30;99.90;;;;;;5031569;28;20208;-76
2021/05/22 06:26:18;;;;;;;3.10;1.27;;;16.30;99.90;;;;;;5031385;28;20201;-74
2021/05/22 06:28:44;;;;;;;1.83;0.70;;;15.90;99.90;;;;;;5013559;28;20206;-72
2021/05/22 06:31:10;;;;;;;4.93;0.80;;;15.60;99.90;;;;;;5031881;28;20240;-71
2021/05/22 06:33:35;;;;;;;3.30;0.83;;;15.00;99.90;;;;;;5030686;28;20244;-71
2021/05/22 06:36:01;;;;;;;1.47;0.80;;;14.60;99.90;;;;;;5031666;28;20202;-71
2021/05/22 06:38:27;;;;;;;3.30;0.83;;;14.30;99.90;;;;;;5023960;28;20182;-71
2021/05/22 06:40:53;;;;;;;3.40;0.90;;;14.10;99.90;;;;;;5020583;28;20862;-70
2021/05/22 06:43:19;;;;;;;3.47;1.10;;;13.90;99.90;;;;;;5020555;28;20285;-70
2021/05/22 06:45:55;;;;;;;2.17;0.63;;;14.00;99.90;;;;;;5011552;28;20436;-71
2021/05/22 06:48:21;;;;;;;3.10;1.00;;;14.00;99.90;;;;;;5020294;28;20898;-70
2021/05/22 06:50:46;;;;;;;3.27;0.83;;;14.00;99.90;;;;;;5023452;28;20786;-71
2021/05/22 06:53:12;;;;;;;3.80;1.10;;;14.00;99.90;;;;;;5023019;28;20542;-71
2021/05/22 06:55:37;;;;;;;1.33;0.70;;;13.80;99.90;;;;;;5020061;28;20236;-70
2021/05/22 06:58:05;;;;;;;1.63;0.70;;;13.70;99.90;;;;;;5007425;28;20178;-71
2021/05/22 07:00:31;;;;;;;1.60;0.70;;;13.70;99.90;;;;;;5024293;28;20174;-70
2021/05/22 07:02:56;;;;;;;3.40;0.93;;;13.60;99.90;;;;;;5031053;28;20420;-71
2021/05/22 07:05:22;;;;;;;6.23;0.83;;;13.60;99.90;;;;;;5024924;28;20178;-70
2021/05/22 07:07:48;;;;;;;4.73;0.77;;;13.50;99.90;;;;;;5025697;28;20699;-71
2021/05/22 07:10:14;;;;;;;4.50;0.93;;;13.60;99.90;;;;;;5020758;28;20181;-71
2021/05/22 07:12:39;;;;;;;4.20;1.10;;;13.60;99.90;;;;;;5020956;28;20299;-71
2021/05/22 07:15:07;;;;;;;2.87;0.70;;;13.60;99.90;;;;;;5019550;28;20520;-71
2021/05/22 07:17:33;;;;;;;6.07;1.13;;;13.50;99.90;;;;;;5020856;28;20738;-72
2021/05/22 07:19:58;;;;;;;6.40;1.10;;;13.40;99.90;;;;;;5019024;28;20799;-70
2021/05/22 07:22:24;;;;;;;6.90;1.17;;;13.30;99.90;;;;;;5020779;28;20443;-71
2021/05/22 07:24:49;;;;;;;3.83;1.00;;;13.40;99.90;;;;;;5019376;28;20213;-71
2021/05/22 07:27:16;;;;;;;4.57;1.03;;;13.60;99.90;;;;;;5018907;28;20208;-71
2021/05/22 07:29:45;;;;;;;3.60;0.90;;;14.20;99.90;;;;;;5023162;28;20194;-71
2021/05/22 07:32:11;;;;;;;2.20;1.17;;;14.80;99.90;;;;;;5019279;28;20931;-71
2021/05/22 07:34:36;;;;;;;3.73;1.13;;;14.90;99.90;;;;;;5025424;28;20448;-71
2021/05/22 07:37:02;;;;;;;2.57;1.10;;;14.80;99.90;;;;;;5023741;28;20273;-71
2021/05/22 07:39:30;;;;;;;3.07;1.30;;;14.70;99.90;;;;;;5023512;28;20205;-71
2021/05/22 07:41:56;;;;;;;1.67;1.00;;;14.60;99.90;;;;;;5031393;28;20236;-72
2021/05/22 07:44:21;;;;;;;2.67;0.90;;;14.70;99.90;;;;;;5026807;28;20468;-70
2021/05/22 07:46:47;;;;;;;4.57;1.13;;;14.60;99.90;;;;;;5016304;28;20574;-71
2021/05/22 07:49:12;;;;;;;4.73;1.40;;;14.40;99.90;;;;;;5029969;28;20654;-70
2021/05/22 07:51:40;;;;;;;6.30;1.00;;;14.50;99.90;;;;;;5026250;28;20543;-71
2021/05/22 07:54:06;;;;;;;5.90;0.93;;;14.50;99.90;;;;;;5034183;28;20178;-71
2021/05/22 07:56:32;;;;;;;0.93;0.63;;;15.20;99.90;;;;;;5024815;28;20480;-72
2021/05/22 07:58:57;;;;;;;3.23;1.40;;;15.90;99.90;;;;;;5020442;28;20529;-70
2021/05/22 08:01:23;;;;;;;1.47;0.93;;;15.20;99.90;;;;;;5032033;28;20192;-72
2021/05/22 08:03:48;;;;;;;3.23;0.87;;;15.70;99.90;;;;;;5016520;28;20209;-71
2021/05/22 08:06:14;;;;;;;3.50;0.60;;;16.10;99.90;;;;;;5034271;28;20198;-72
2021/05/22 08:08:40;;;;;;;1.00;0.60;;;16.60;99.90;;;;;;5034425;28;20541;-71
2021/05/22 08:11:06;;;;;;;2.23;0.57;;;16.80;99.90;;;;;;5034290;28;20408;-72
2021/05/22 08:13:32;;;;;;;1.80;0.90;;;17.00;99.90;;;;;;5034011;28;20178;-72
2021/05/22 08:15:58;;;;;;;1.37;0.80;;;17.70;99.90;;;;;;5034535;28;20194;-71
2021/05/22 08:18:24;;;;;;;1.60;0.70;;;18.10;99.90;;;;;;5034112;28;20182;-72
2021/05/22 08:20:50;;;;;;;1.70;0.80;;;18.20;99.90;;;;;;5034083;28;20462;-72
2021/05/22 08:23:16;;;;;;;3.60;0.70;;;18.00;99.90;;;;;;5033779;28;20452;-72
2021/05/22 08:25:41;;;;;;;3.60;0.80;;;17.50;99.90;;;;;;5034078;28;20178;-72
2021/05/22 08:28:08;;;;;;;2.37;0.70;;;17.10;99.90;;;;;;5034037;28;20253;-72
2021/05/22 08:30:34;;;;;;;2.60;0.97;;;17.30;99.90;;;;;;5034019;28;20180;-72
2021/05/22 08:33:01;;;;;;;1.20;0.63;;;18.00;99.90;;;;;;5032454;28;20871;-71
2021/05/22 08:35:27;;;;;;;1.47;0.70;;;18.20;99.90;;;;;;5033637;28;20451;-72
2021/05/22 08:37:52;;;;;;;2.30;0.70;;;18.80;99.90;;;;;;5033841;28;20460;-71
2021/05/22 08:40:18;;;;;;;1.80;0.67;;;19.10;99.90;;;;;;5033799;28;20174;-72
2021/05/22 08:42:43;;;;;;;1.83;0.70;;;18.90;99.90;;;;;;5029534;28;20167;-71
2021/05/22 08:45:11;;;;;;;6.10;0.77;;;19.40;99.90;;;;;;5012344;28;20217;-71
2021/05/22 08:47:38;;;;;;;2.10;0.70;;;20.20;99.90;;;;;;5013967;28;20237;-70
2021/05/22 08:50:06;;;;;;;1.73;0.60;;;20.00;99.90;;;;;;5014176;28;20402;-72
2021/05/22 08:52:32;;;;;;;1.77;0.77;;;20.40;99.90;;;;;;5013459;28;20421;-72
2021/05/22 08:54:57;;;;;;;6.27;1.17;;;20.50;99.90;;;;;;5013632;28;20512;-72
2021/05/22 08:57:23;;;;;;;3.00;0.60;;;20.90;99.90;;;;;;5013475;28;20523;-72
2021/05/22 08:59:49;;;;;;;0.90;0.60;;;21.20;99.90;;;;;;5013861;28;20245;-71
2021/05/22 09:02:24;;;;;;;5.07;0.57;;;21.10;99.90;;;;;;5010218;28;20179;-72
2021/05/22 09:05:21;;;;;;;1.00;0.50;;;20.50;99.90;;;;;;5013068;28;20465;-73
2021/05/22 09:07:49;;;;;;;2.93;0.80;;;19.70;99.90;;;;;;5013611;28;20433;-72
2021/05/22 09:10:23;;;;;;;2.60;1.03;;;19.80;99.90;;;;;;5013364;28;20409;-72
2021/05/22 09:12:52;;;;;;;1.80;0.60;;;19.70;99.90;;;;;;5013215;28;20416;-72
2021/05/22 09:15:21;;;;;;;2.53;0.90;;;19.80;99.90;;;;;;5013208;28;20414;-72
2021/05/22 09:17:55;;;;;;;1.47;0.60;;;20.20;99.90;;;;;;5013447;28;20433;-71
2021/05/22 09:20:39;;;;;;;2.10;0.70;;;20.30;99.90;;;;;;5013236;28;20406;-72
2021/05/22 09:23:11;;;;;;;1.77;0.60;;;20.40;99.90;;;;;;5012920;28;20430;-72
2021/05/22 09:25:42;;;;;;;2.73;0.77;;;20.20;99.90;;;;;;5013191;28;21175;-71
2021/05/22 09:28:09;;;;;;;1.40;0.70;;;19.80;99.90;;;;;;5013028;28;20414;-72
2021/05/22 09:30:36;;;;;;;2.40;0.60;;;19.30;99.90;;;;;;5013179;28;20422;-72
2021/05/22 09:33:03;;;;;;;5.93;0.67;;;18.90;99.90;;;;;;5012867;28;20406;-72
2021/05/22 09:35:29;;;;;;;2.77;0.90;;;19.20;99.90;;;;;;5012905;28;20421;-72
2021/05/22 09:37:58;;;;;;;1.53;0.80;;;19.60;99.90;;;;;;4996107;28;20997;-72
2021/05/22 09:40:30;;;;;;;2.17;0.60;;;20.10;99.00;;;;;;5013761;28;20232;-73
2021/05/22 09:42:57;;;;;;;2.33;0.60;;;19.90;96.70;;;;;;4995511;28;20423;-72
2021/05/22 09:45:24;;;;;;;3.80;0.60;;;20.00;97.60;;;;;;5012653;28;20771;-72
2021/05/22 09:47:49;;;;;;;5.60;0.67;;;20.40;99.80;;;;;;5012886;28;20806;-72
2021/05/22 09:50:31;;;;;;;1.97;0.57;;;21.00;97.90;;;;;;5012595;28;20432;-72
2021/05/22 09:52:57;;;;;;;3.77;0.50;;;20.70;96.70;;;;;;5012597;28;20178;-73
2021/05/22 09:55:23;;;;;;;1.90;0.43;;;21.00;97.10;;;;;;5012340;28;20587;-72
2021/05/22 09:57:51;;;;;;;1.80;0.57;;;21.10;98.00;;;;;;5012626;28;20508;-72
2021/05/22 10:00:23;;;;;;;1.43;0.70;;;21.40;96.90;;;;;;5012469;28;20175;-73
2021/05/22 10:02:52;;;;;;;2.63;0.70;;;21.60;97.10;;;;;;5012501;28;20409;-71
2021/05/22 10:05:23;;;;;;;2.30;0.87;;;21.30;96.40;;;;;;5011686;28;20453;-73
2021/05/22 10:07:51;;;;;;;4.07;0.60;;;21.40;95.60;;;;;;5012436;28;20440;-72
2021/05/22 10:10:18;;;;;;;1.77;0.70;;;21.60;96.10;;;;;;5012172;28;20433;-72
2021/05/22 10:12:46;;;;;;;3.77;0.60;;;21.60;95.60;;;;;;4994503;28;20504;-73
2021/05/22 10:15:14;;;;;;;2.33;0.80;;;21.60;96.40;;;;;;5010984;28;20452;-72
2021/05/22 10:17:41;;;;;;;1.00;0.50;;;21.60;96.00;;;;;;5012271;28;20433;-72
2021/05/22 10:20:07;;;;;;;1.27;0.60;;;21.70;95.50;;;;;;5012328;28;20951;-73
2021/05/22 10:22:33;;;;;;;3.70;0.67;;;21.50;95.50;;;;;;5011889;28;20413;-71
2021/05/22 10:25:03;;;;;;;2.90;0.70;;;20.80;94.50;;;;;;5011911;28;20560;-72
2021/05/22 10:27:29;;;;;;;1.57;0.70;;;20.60;95.00;;;;;;5011934;28;20811;-72
2021/05/22 10:29:54;;;;;;;2.63;0.60;;;20.10;94.80;;;;;;5012198;28;20410;-72
2021/05/22 10:32:22;;;;;;;0.90;0.60;;;20.10;96.00;;;;;;5011780;28;20691;-71
2021/05/22 10:34:50;;;;;;;4.57;0.97;;;20.00;94.20;;;;;;5011740;28;20193;-71
2021/05/22 10:37:49;;;;;;;7.80;0.70;;;19.60;95.40;;;;;;5011763;28;20480;-71
2021/05/22 10:40:49;;;;;;;3.20;0.70;;;19.30;94.90;;;;;;5011711;28;20410;-71
2021/05/22 10:43:15;;;;;;;4.40;0.80;;;19.40;94.40;;;;;;5011336;28;20448;-72
2021/05/22 10:45:43;;;;;;;2.20;0.70;;;19.60;93.60;;;;;;5012052;28;20445;-72
2021/05/22 10:48:29;;;;;;;2.10;0.60;;;19.80;94.40;;;;;;5012372;28;20205;-71
2021/05/22 10:50:55;;;;;;;4.37;0.60;;;20.10;92.00;;;;;;5011752;28;20841;-72
2021/05/22 10:53:33;;;;;;;1.90;0.60;;;21.00;94.40;;;;;;5011309;28;20424;-73
2021/05/22 10:56:05;;;;;;;3.73;0.50;;;20.80;91.10;;;;;;5011447;28;20467;-71
2021/05/22 10:58:31;;;;;;;2.30;0.53;;;20.50;91.70;;;;;;4994226;28;20413;-72
2021/05/22 11:01:25;;;;;;;1.87;0.60;;;20.90;91.00;;;;;;5011646;28;20421;-71
2021/05/22 11:04:18;;;;;;;0.60;0.60;;;21.10;91.80;;;;;;5011352;28;20203;-72
2021/05/22 11:06:46;;;;;;;6.07;0.60;;;21.20;91.50;;;;;;5011609;28;20981;-71
2021/05/22 11:09:37;;;;;;;5.40;0.60;;;21.40;92.70;;;;;;5011395;28;20927;-71
2021/05/22 11:12:03;;;;;;;2.45;0.60;;;21.30;90.60;;;;;;4992766;28;20415;-71
2021/05/22 11:14:33;;;;;;;1.80;0.60;;;20.90;91.10;;;;;;5011515;28;20739;-71
2021/05/22 11:16:58;;;;;;;1.23;0.60;;;21.00;91.80;;;;;;5013944;28;20429;-72
2021/05/22 11:19:24;;;;;;;2.57;1.07;;;20.70;91.90;;;;;;5015492;28;20421;-72
2021/05/22 11:22:14;;;;;;;3.00;0.70;;;20.90;92.50;;;;;;5015460;28;20186;-72
2021/05/22 11:24:59;;;;;;;2.83;0.60;;;20.80;91.00;;;;;;5015464;28;20210;-72
2021/05/22 11:27:44;;;;;;;1.33;0.50;;;20.30;90.80;;;;;;5015165;28;20433;-72
2021/05/22 11:30:11;;;;;;;0.93;0.67;;;19.80;91.60;;;;;;5015533;28;20940;-71
2021/05/22 11:32:56;;;;;;;1.00;0.40;;;20.10;91.20;;;;;;5015329;28;20464;-71
2021/05/22 11:35:31;;;;;;;1.90;0.80;;;20.40;92.80;;;;;;5015241;28;20445;-71
2021/05/22 11:38:14;;;;;;;0.50;0.40;;;20.50;91.50;;;;;;5015293;28;20469;-71
2021/05/22 11:40:40;;;;;;;2.20;0.50;;;20.40;90.60;;;;;;5015688;28;20416;-71
2021/05/22 11:43:15;;;;;;;1.00;0.63;;;20.20;91.00;;;;;;5014876;28;20405;-71
2021/05/22 11:45:47;;;;;;;1.57;0.50;;;19.90;91.80;;;;;;5015033;28;20643;-72
2021/05/22 11:48:25;;;;;;;0.80;0.60;;;19.80;92.00;;;;;;5014903;28;20807;-72
2021/05/22 11:50:52;;;;;;;1.80;0.87;;;20.10;92.30;;;;;;5017617;28;20491;-71
2021/05/22 11:53:18;;;;;;;2.97;0.70;;;20.50;92.00;;;;;;5028425;28;20459;-71
2021/05/22 11:55:53;;;;;;;1.50;0.50;;;20.70;90.10;;;;;;5026167;28;20424;-71
2021/05/22 11:58:19;;;;;;;1.43;0.60;;;20.80;90.90;;;;;;5028570;28;20293;-71
2021/05/22 12:00:44;;;;;;;3.00;0.80;;;20.70;90.00;;;;;;5004413;28;20534;-72
2021/05/22 12:03:21;;;;;;;1.20;0.90;;;20.70;88.50;;;;;;5014561;28;20594;-72
2021/05/22 12:05:47;;;;;;;4.93;0.70;;;20.30;90.20;;;;;;5014803;28;20175;-71
2021/05/22 12:08:21;;;;;;;0.77;0.50;;;20.20;90.40;;;;;;5014636;28;20420;-72
2021/05/22 12:10:48;;;;;;;0.93;0.43;;;20.10;90.50;;;;;;5014620;28;20166;-72
2021/05/22 12:13:13;;;;;;;0.93;0.50;;;20.00;90.60;;;;;;5014508;28;20420;-71
2021/05/22 12:15:42;;;;;;;6.30;0.70;;;19.60;90.90;;;;;;5014580;28;20435;-71
2021/05/22 12:18:09;;;;;;;2.23;0.90;;;19.30;91.70;;;;;;5014492;28;20174;-72
2021/05/22 12:20:52;;;;;;;1.70;0.50;;;19.20;91.70;;;;;;5014528;28;20413;-72
2021/05/22 12:23:32;;;;;;;1.57;1.47;;;19.30;92.00;;;;;;5014268;28;20409;-72
2021/05/22 12:26:00;;;;;;;1.40;0.70;;;19.40;91.80;;;;;;5014320;28;20468;-71
2021/05/22 12:28:27;;;;;;;0.90;0.60;;;19.20;91.00;;;;;;5013647;28;20413;-72
2021/05/22 12:30:55;;;;;;;2.53;0.60;;;19.40;92.20;;;;;;5014521;28;20424;-72
2021/05/22 12:33:20;;;;;;;1.77;0.70;;;19.60;93.20;;;;;;5013845;28;20911;-71
2021/05/22 12:35:47;;;;;;;0.83;0.50;;;20.00;93.50;;;;;;5014090;28;20421;-72
2021/05/22 12:38:14;;;;;;;4.83;0.90;;;20.10;90.20;;;;;;5014045;28;20592;-72
2021/05/22 12:40:50;;;;;;;2.30;0.77;;;20.10;90.10;;;;;;5014307;28;20800;-72
2021/05/22 12:43:16;;;;;;;5.10;0.90;;;20.20;91.20;;;;;;5013689;28;20417;-72
2021/05/22 12:45:44;;;;;;;1.57;0.70;;;20.40;90.80;;;;;;5014040;28;20781;-72
2021/05/22 12:48:26;;;;;;;3.00;0.80;;;20.20;90.90;;;;;;5013800;28;20915;-72
2021/05/22 12:50:51;;;;;;;3.03;0.77;;;20.10;91.00;;;;;;5014089;28;20409;-72
2021/05/22 12:53:32;;;;;;;5.03;0.60;;;19.80;91.70;;;;;;5013660;28;20410;-72
2021/05/22 12:56:07;;;;;;;1.90;0.70;;;19.20;90.60;;;;;;5013707;28;20206;-71